หน้าหลัก
METAR-TAF:

METAR-TAF

ท่าอากาศยาน :

ฮาร์บิน, จีน

ละติจูด: 45-45N, ลองจิจูด: 126-46E, ความสูง: 143 ม.

การสังเกตสภาพอากาศปัจจุบัน

รายงานได้ทำขึ้นเมื่อ 45 นาทีที่แล้ว ณ เวลา 08:00 UTC
ลม 12 นอตจากตะวันตก, แปรผันระหว่างตะวันตก และตะวันตกเฉียงเหนือ
อุณหภูมิ 13°C
ความชื้น 16%
ความกดอากาศ 1015 hPa
ทัศนวิสัย 10 กม. หรือมากกว่า
ไม่มีเมฆต่ำกว่า 1,500 ม. และไม่มีเมฆคิวมูโลนิมบัส

METAR: ZYHB 190800Z 28006MPS 260V320 CAVOK 13/M12 Q1015 NOSIG

เวลา: 16:45 (08:45 UTC)

การพยากรณ์

รายงานได้ทำขึ้นเมื่อ 5 ชั่วโมงและ 36 นาทีที่แล้ว ณ เวลา 03:09 UTC
การพยากรณ์มีผลตั้งแต่วันที่ 19 ณ เวลา 06 UTC จนถึงวันที่ 20 ณ เวลา 06 UTC
ลม 12 นอตจากเหนือ/ตะวันตกเฉียงเหนือโดยมีลมกระโชกได้ถึง23 นอต
ทัศนวิสัย: 6000 ม.
มีเมฆกระจายเป็นบางส่วนที่ความสูง 3300 ฟุต
กำลังกลายเป็น
ตั้งแต่วันที่ 19 ณ เวลา 09 UTC จนถึงวันที่ 19 ณ เวลา 11 UTC
ลม 8 นอตจากใต้/ตะวันออกเฉียงใต้

TAF: ZYHB 190309Z 1906/2006 34006G12MPS 6000 SCT033 TX14/1906Z TN01/1921Z BECMG 1909/1911 16004MPS

สังเกตการณ์สภาพอากาศและพยากรณ์อากาศของสนามบินมากกว่า 4000 แห่ง (รายงาน METAR และ TAF).

สถานีที่ดูได้จะแสดงไว้ด้วยจุดสีเหลืองและสีแดงบนแผนที่.

เลื่อนเมาส์ไปเหนือจุดเพื่อดูชื่อสถานี.

แล้วคลิกเพื่อดูสังเกตการณ์และการพยากรณ์สภาพอากาศ.

ในการเปลี่ยนแผนที่: คลิกที่ปุ่มสีเขียวที่มีกากบาทสีดำเพื่อซูมเข้า; ที่ปุ่มสีเขียวที่มีขีดเพื่อซูมออก; หรือที่ลูกศรสีเขียวเพื่อไปยังแผนที่ที่อยู่ติดกัน.


METAR-TAF: